Terminal Aerodrome Forecast
Issued by NWS

Home | Current Version | Previous Version | Text Only | Print | Product List | Glossary On
Versions: 1 2 3 4 5 6 7 8 9 10 11 12 13 14 15 16 17 18 19 20
000
FTUS46 KHNX 241123
TAFVIS
TAF
KVIS 241123Z 2412/2512 00000KT 3SM BR SCT005 BKN035
      TEMPO 2412/2416 1 1/2SM BR BKN005
     FM242000 VRB03KT 6SM HZ SKC
     FM250600 00000KT 3SM BR SKC
     FM251000 00000KT 1/2SM FG VV002=

USA.gov is the U.S. government's official web portal to all federal, state and local government web resources and services.